Time;durP1;ratioP1;P1;durP2;ratioP2;P2;SDS_P1;SDS_P2;PMS_P1;PMS_P2;Temp;Humidity;BMP_temperature;BMP_pressure;BME280_temperature;BME280_humidity;BME280_pressure;Samples;Min_cycle;Max_cycle;Signal;HPM_P1;HPM_P2
2021/08/02 00:00:03;;;;;;;0.10;0.10;;;;;;;25.47;51.46;99453.06;5050335;28;20084;-55
2021/08/02 00:02:50;;;;;;;0.10;0.10;;;;;;;25.48;51.59;99428.81;5049611;28;20491;-55
2021/08/02 00:05:17;;;;;;;0.08;0.08;;;;;;;25.46;51.53;99412.13;5050815;28;20482;-53
2021/08/02 00:07:43;;;;;;;0.10;0.10;;;;;;;25.45;51.64;99398.97;5050325;28;20144;-56
2021/08/02 00:10:12;;;;;;;0.20;0.20;;;;;;;25.40;51.54;99370.97;5032633;28;20430;-56
2021/08/02 00:12:53;;;;;;;0.10;0.10;;;;;;;25.40;51.68;99373.63;5050241;28;20045;-54
2021/08/02 00:15:19;;;;;;;0.20;0.20;;;;;;;25.44;51.76;99373.25;5032760;28;20093;-55
2021/08/02 00:17:45;;;;;;;0.20;0.20;;;;;;;25.42;51.68;99365.44;5050226;28;20048;-54
2021/08/02 00:20:13;;;;;;;0.00;0.00;;;;;;;25.43;51.70;99367.06;5049005;28;20063;-55
2021/08/02 00:22:40;;;;;;;0.10;0.10;;;;;;;25.40;51.67;99360.25;5065539;28;20148;-54
2021/08/02 00:25:06;;;;;;;0.10;0.10;;;;;;;25.43;51.57;99356.38;5050106;28;20103;-55
2021/08/02 00:27:33;;;;;;;0.10;0.10;;;;;;;25.42;51.94;99337.88;5050043;28;20056;-54
2021/08/02 00:29:59;;;;;;;0.10;0.10;;;;;;;25.42;51.83;99338.69;5050040;28;20076;-54
2021/08/02 00:32:25;;;;;;;0.00;0.00;;;;;;;25.29;51.75;99334.03;5048305;28;20044;-53
2021/08/02 00:35:11;;;;;;;0.03;0.03;;;;;;;25.45;51.66;99367.72;5049803;28;20076;-56
2021/08/02 00:38:03;;;;;;;0.10;0.10;;;;;;;25.45;51.56;99367.72;5048885;28;20045;-53
2021/08/02 00:40:49;;;;;;;0.10;0.10;;;;;;;25.48;51.64;99359.31;5049803;28;20048;-55
2021/08/02 00:43:54;;;;;;;0.10;0.10;;;;;;;25.48;51.54;99353.97;5049466;28;20507;-54
2021/08/02 00:46:42;;;;;;;0.05;0.05;;;;;;;25.41;51.60;99342.38;5048661;28;20565;-54
2021/08/02 00:49:28;;;;;;;0.00;0.00;;;;;;;25.48;51.76;99340.59;5035059;28;20048;-53
2021/08/02 00:52:14;;;;;;;0.00;0.00;;;;;;;25.49;51.72;99338.75;5049134;28;20407;-55
2021/08/02 00:55:03;;;;;;;0.28;0.28;;;;;;;25.51;51.64;99337.56;5048842;28;20135;-54
2021/08/02 00:57:50;;;;;;;0.10;0.10;;;;;;;25.51;51.58;99336.75;5049584;28;20107;-55
2021/08/02 01:00:37;;;;;;;0.30;0.30;;;;;;;25.49;51.59;99339.56;5035025;28;20052;-55
2021/08/02 01:03:24;;;;;;;0.00;0.00;;;;;;;25.47;51.59;99314.03;5048557;28;20549;-54
2021/08/02 01:06:11;;;;;;;0.10;0.10;;;;;;;25.51;51.56;99326.88;5034954;28;20045;-54
2021/08/02 01:09:03;;;;;;;0.13;0.13;;;;;;;25.50;51.78;99337.75;5049617;28;20414;-54
2021/08/02 01:11:51;;;;;;;0.20;0.20;;;;;;;25.49;51.64;99331.53;5048392;28;20493;-55
2021/08/02 01:14:38;;;;;;;0.10;0.10;;;;;;;25.51;51.58;99326.03;5034746;28;20494;-56
2021/08/02 01:17:24;;;;;;;0.10;0.10;;;;;;;25.48;51.61;99326.41;5048549;28;20499;-55
2021/08/02 01:20:10;;;;;;;0.35;0.35;;;;;;;25.52;51.44;99331.22;5049517;28;20438;-54
2021/08/02 01:22:56;;;;;;;0.10;0.10;;;;;;;25.49;51.53;99320.84;5048546;28;20049;-53
2021/08/02 01:25:42;;;;;;;0.20;0.20;;;;;;;25.52;51.37;99333.06;5034381;28;20076;-56
2021/08/02 01:28:32;;;;;;;0.10;0.10;;;;;;;25.51;51.37;99328.72;5049543;28;20115;-59
2021/08/02 01:31:21;;;;;;;0.20;0.20;;;;;;;25.50;51.55;99319.88;5050072;28;20041;-56
2021/08/02 01:34:09;;;;;;;0.10;0.10;;;;;;;25.48;51.58;99321.06;5049511;28;20045;-53
2021/08/02 01:36:57;;;;;;;0.05;0.05;;;;;;;25.50;51.63;99329.72;5035466;28;20517;-57
2021/08/02 01:39:53;;;;;;;0.05;0.05;;;;;;;25.50;51.68;99325.22;5062531;28;20434;-57
2021/08/02 01:42:40;;;;;;;0.13;0.13;;;;;;;25.45;51.58;99318.78;5048256;28;20060;-53
2021/08/02 01:45:55;;;;;;;0.28;0.28;;;;;;;25.49;51.77;99334.22;5051737;28;20049;-54
2021/08/02 01:49:06;;;;;;;0.20;0.20;;;;;;;25.49;51.70;99328.88;5053523;28;20116;-55
2021/08/02 01:51:52;;;;;;;0.10;0.10;;;;;;;25.42;51.57;99328.81;5053543;28;20136;-55
2021/08/02 01:54:56;;;;;;;0.10;0.10;;;;;;;25.50;51.68;99327.06;5053314;28;20580;-54
2021/08/02 01:57:53;;;;;;;0.00;0.00;;;;;;;25.47;51.64;99328.25;5052060;28;20430;-54
2021/08/02 02:00:49;;;;;;;0.03;0.03;;;;;;;25.38;51.64;99313.38;5039409;28;20053;-55
2021/08/02 02:03:38;;;;;;;0.30;0.30;;;;;;;25.49;51.71;99317.38;5052301;28;20055;-56
2021/08/02 02:06:38;;;;;;;0.10;0.10;;;;;;;25.48;51.68;99316.53;5052371;28;20399;-58
2021/08/02 02:09:27;;;;;;;0.05;0.05;;;;;;;25.48;51.65;99308.53;5039425;28;20047;-53
2021/08/02 02:12:15;;;;;;;0.10;0.10;;;;;;;25.50;51.58;99313.69;5039886;28;20045;-58
2021/08/02 02:15:03;;;;;;;0.10;0.10;;;;;;;25.49;51.62;99310.16;5038591;28;20057;-59
2021/08/02 02:17:49;;;;;;;0.10;0.10;;;;;;;25.49;51.54;99306.69;5038721;28;20059;-55
2021/08/02 02:20:38;;;;;;;0.10;0.10;;;;;;;25.56;51.53;99312.91;5052374;28;20049;-57
2021/08/02 02:23:24;;;;;;;0.52;0.52;;;;;;;25.59;51.45;99310.69;5052676;28;20519;-56
2021/08/02 02:26:11;;;;;;;0.17;0.17;;;;;;;25.60;51.37;99309.66;5053253;28;20045;-56
2021/08/02 02:28:59;;;;;;;0.10;0.10;;;;;;;25.61;51.39;99305.97;5038787;28;20041;-55
2021/08/02 02:31:46;;;;;;;0.10;0.10;;;;;;;25.65;51.11;99304.59;5052045;28;20111;-56
2021/08/02 02:34:34;;;;;;;0.10;0.10;;;;;;;25.64;51.09;99305.59;5039190;28;20041;-52
2021/08/02 02:37:30;;;;;;;0.10;0.10;;;;;;;25.70;51.21;99315.50;5038379;28;20449;-57
2021/08/02 02:40:19;;;;;;;0.00;0.00;;;;;;;25.72;51.39;99320.69;5051803;28;20056;-56
2021/08/02 02:43:06;;;;;;;0.10;0.10;;;;;;;25.69;51.08;99302.31;5051494;28;20049;-54
2021/08/02 02:45:53;;;;;;;0.10;0.10;;;;;;;25.69;50.93;99296.97;5037527;28;20061;-55
2021/08/02 02:48:39;;;;;;;0.10;0.10;;;;;;;25.71;50.71;99290.44;5051100;28;20431;-58
2021/08/02 02:51:26;;;;;;;0.00;0.00;;;;;;;25.87;50.52;99302.69;5065209;28;20418;-57
2021/08/02 02:54:12;;;;;;;0.15;0.15;;;;;;;26.04;50.46;99303.19;5050985;28;20041;-57
2021/08/02 02:56:58;;;;;;;0.10;0.10;;;;;;;26.14;49.90;99311.69;5037119;28;20324;-53
2021/08/02 02:59:46;;;;;;;0.13;0.13;;;;;;;26.36;49.29;99302.59;5050763;28;20056;-52
2021/08/02 03:02:33;;;;;;;0.08;0.08;;;;;;;26.59;48.58;99297.75;5052102;28;20103;-51
2021/08/02 03:05:19;;;;;;;0.10;0.10;;;;;;;26.57;48.73;99305.13;5037149;28;20451;-52
2021/08/02 03:08:06;;;;;;;0.10;0.10;;;;;;;26.46;48.75;99315.59;5050968;28;20052;-54
2021/08/02 03:10:53;;;;;;;0.10;0.10;;;;;;;26.31;49.38;99326.44;5036915;28;20326;-53
2021/08/02 03:13:38;;;;;;;0.22;0.22;;;;;;;26.18;49.54;99321.00;5051354;28;20045;-55
2021/08/02 03:16:24;;;;;;;0.10;0.10;;;;;;;26.05;49.75;99320.88;5051728;28;20040;-55
2021/08/02 03:19:10;;;;;;;0.10;0.10;;;;;;;26.11;49.72;99344.22;5050499;28;20584;-53
2021/08/02 03:21:56;;;;;;;0.10;0.10;;;;;;;26.15;49.83;99340.09;5064222;28;20049;-54
2021/08/02 03:24:45;;;;;;;0.28;0.28;;;;;;;26.19;49.70;99346.75;5051212;28;20418;-54
2021/08/02 03:27:41;;;;;;;0.10;0.10;;;;;;;26.21;49.64;99332.13;5051622;28;20088;-52
2021/08/02 03:30:27;;;;;;;0.10;0.10;;;;;;;26.25;49.67;99329.91;5036615;28;20057;-52
2021/08/02 03:33:16;;;;;;;0.10;0.10;;;;;;;26.42;49.01;99309.81;5050437;28;20106;-53
2021/08/02 03:36:06;;;;;;;0.03;0.03;;;;;;;26.71;48.17;99309.53;5036265;28;20526;-54
2021/08/02 03:38:52;;;;;;;;;;;;;;;26.93;47.62;99313.75;5051343;28;20503;-54
2021/08/02 03:41:41;;;;;;;0.30;0.30;;;;;;;27.77;45.55;99319.44;5051298;28;19970;-53
2021/08/02 03:44:27;;;;;;;0.10;0.10;;;;;;;28.67;43.36;99315.94;5036678;28;20103;-53
2021/08/02 03:47:13;;;;;;;0.70;0.70;;;;;;;29.11;42.45;99331.22;5050112;28;20077;-54
2021/08/02 03:49:59;;;;;;;0.10;0.10;;;;;;;28.95;42.57;99321.81;5050860;28;20045;-53
2021/08/02 03:52:47;;;;;;;0.20;0.20;;;;;;;29.42;41.88;99339.31;5049644;28;20098;-53
2021/08/02 03:55:33;;;;;;;0.10;0.10;;;;;;;29.56;41.49;99348.13;5051079;28;20419;-54
2021/08/02 03:58:19;;;;;;;0.30;0.30;;;;;;;30.02;40.54;99333.47;5036231;28;20524;-55
2021/08/02 04:01:05;;;;;;;0.30;0.30;;;;;;;30.30;39.89;99329.22;5050672;28;20052;-55
2021/08/02 04:03:50;;;;;;;0.20;0.20;;;;;;;30.61;39.35;99327.47;5050667;28;20262;-53
2021/08/02 04:06:37;;;;;;;0.20;0.20;;;;;;;31.09;38.48;99336.38;5050639;28;20060;-55
2021/08/02 04:09:22;;;;;;;0.20;0.20;;;;;;;31.42;37.41;99333.19;5050495;28;20044;-56
2021/08/02 04:12:09;;;;;;;0.10;0.10;;;;;;;31.28;37.44;99312.88;5050644;28;20060;-55
2021/08/02 04:14:55;;;;;;;0.20;0.20;;;;;;;31.33;37.56;99331.88;5050332;28;20088;-54
2021/08/02 04:17:41;;;;;;;0.10;0.10;;;;;;;31.53;37.28;99337.00;5050677;28;20055;-55
2021/08/02 04:20:27;;;;;;;0.20;0.20;;;;;;;31.20;37.75;99327.50;5049502;28;20108;-55
2021/08/02 04:23:13;;;;;;;0.30;0.30;;;;;;;31.53;37.21;99316.25;5050485;28;20542;-53
2021/08/02 04:25:58;;;;;;;0.20;0.20;;;;;;;31.90;36.23;99306.06;5050197;28;20056;-54
2021/08/02 04:28:45;;;;;;;0.20;0.20;;;;;;;32.43;35.81;99306.72;5049977;28;20107;-54
2021/08/02 04:31:31;;;;;;;0.30;0.30;;;;;;;32.83;34.86;99293.22;5050256;28;20135;-54
2021/08/02 04:34:17;;;;;;;0.10;0.10;;;;;;;32.91;34.51;99287.44;5049176;28;20045;-51
2021/08/02 04:37:03;;;;;;;0.20;0.20;;;;;;;32.87;34.32;99291.66;5050050;28;20565;-54
2021/08/02 04:39:49;;;;;;;0.10;0.10;;;;;;;32.81;34.32;99286.41;5049817;28;20061;-54
2021/08/02 04:42:36;;;;;;;0.20;0.20;;;;;;;32.74;34.80;99285.72;5049995;28;20053;-54
2021/08/02 04:45:22;;;;;;;0.40;0.40;;;;;;;32.83;34.72;99265.34;5049996;28;20462;-55
2021/08/02 04:48:07;;;;;;;0.20;0.20;;;;;;;33.20;34.17;99279.28;5049989;28;20152;-54
2021/08/02 04:50:53;;;;;;;0.20;0.20;;;;;;;33.43;33.28;99284.56;5049711;28;20480;-53
2021/08/02 04:53:39;;;;;;;0.20;0.20;;;;;;;33.51;33.23;99276.00;5050049;28;20588;-54
2021/08/02 04:56:25;;;;;;;0.20;0.20;;;;;;;33.69;32.83;99283.91;5049887;28;20052;-53
2021/08/02 04:59:11;;;;;;;0.20;0.20;;;;;;;33.62;33.04;99271.59;5049792;28;20088;-54
2021/08/02 05:01:59;;;;;;;0.20;0.20;;;;;;;33.49;33.55;99288.97;5049401;28;20056;-56
2021/08/02 05:04:45;;;;;;;0.20;0.20;;;;;;;33.58;33.05;99281.25;5049334;28;20127;-57
2021/08/02 05:07:31;;;;;;;1.45;0.70;;;;;;;33.81;32.82;99275.69;5049834;28;20044;-56
2021/08/02 05:10:17;;;;;;;0.20;0.20;;;;;;;34.10;32.25;99262.84;5049653;28;20088;-57
2021/08/02 05:13:03;;;;;;;0.20;0.20;;;;;;;34.34;32.03;99275.09;5049512;28;20134;-56
2021/08/02 05:15:49;;;;;;;0.20;0.20;;;;;;;34.30;31.84;99272.06;5049340;28;20056;-56
2021/08/02 05:18:16;;;;;;;0.20;0.20;;;;;;;33.86;32.99;99268.47;5049283;28;20049;-56
2021/08/02 05:20:42;;;;;;;0.30;0.30;;;;;;;34.06;32.27;99267.09;5049440;28;20045;-55
2021/08/02 05:23:09;;;;;;;0.17;0.17;;;;;;;34.08;32.71;99271.19;5048012;28;20053;-56
2021/08/02 05:25:35;;;;;;;0.45;0.45;;;;;;;33.96;32.50;99275.91;5049413;28;20055;-56
2021/08/02 05:28:01;;;;;;;0.20;0.20;;;;;;;34.27;32.15;99279.88;5049199;28;20056;-55
2021/08/02 05:30:28;;;;;;;0.20;0.20;;;;;;;34.48;31.74;99282.59;5048278;28;20045;-54
2021/08/02 05:32:54;;;;;;;0.20;0.20;;;;;;;34.64;31.23;99270.06;5049274;28;20399;-55
2021/08/02 05:35:20;;;;;;;0.20;0.20;;;;;;;34.62;31.39;99271.41;5049310;28;20061;-56
2021/08/02 05:37:46;;;;;;;0.30;0.30;;;;;;;34.81;31.04;99265.38;5049177;28;20053;-55
2021/08/02 05:40:13;;;;;;;0.50;0.50;;;;;;;35.00;30.82;99277.50;5049158;28;20051;-60
2021/08/02 05:42:39;;;;;;;0.20;0.20;;;;;;;35.01;30.82;99275.59;5049168;28;20053;-60
2021/08/02 05:45:06;;;;;;;0.22;0.22;;;;;;;35.09;30.73;99271.59;5049066;28;20056;-60
2021/08/02 05:47:32;;;;;;;0.20;0.20;;;;;;;35.16;30.59;99261.38;5031556;28;20049;-60
2021/08/02 05:49:58;;;;;;;0.30;0.30;;;;;;;35.33;30.20;99267.50;5047820;28;20522;-60
2021/08/02 05:52:24;;;;;;;0.20;0.20;;;;;;;35.23;30.27;99253.84;5049342;28;20060;-60
2021/08/02 05:54:50;;;;;;;0.20;0.20;;;;;;;35.37;30.20;99271.34;5031253;28;20044;-61
2021/08/02 05:57:20;;;;;;;0.10;0.10;;;;;;;35.11;30.53;99275.75;5049383;28;20057;-60
2021/08/02 05:59:46;;;;;;;0.22;0.22;;;;;;;34.62;31.37;99266.75;5048986;28;20136;-60
2021/08/02 06:02:12;;;;;;;0.20;0.20;;;;;;;34.72;30.94;99260.66;5047709;28;20060;-59
2021/08/02 06:04:39;;;;;;;0.20;0.20;;;;;;;35.09;30.68;99277.84;5049099;28;20049;-60
2021/08/02 06:07:05;;;;;;;0.52;0.52;;;;;;;35.11;30.66;99269.47;5048844;28;20060;-60
2021/08/02 06:09:31;;;;;;;0.32;0.32;;;;;;;35.15;30.46;99254.28;5048968;28;20056;-60
2021/08/02 06:11:57;;;;;;;0.20;0.20;;;;;;;35.44;30.02;99270.03;5048836;28;20041;-60
2021/08/02 06:14:22;;;;;;;0.30;0.30;;;;;;;35.54;29.88;99264.66;5047698;28;20045;-60
2021/08/02 06:16:50;;;;;;;0.20;0.20;;;;;;;35.64;29.81;99263.94;5048992;28;20052;-60
2021/08/02 06:19:16;;;;;;;0.20;0.20;;;;;;;35.62;29.59;99260.69;5048857;28;20131;-60
2021/08/02 06:21:42;;;;;;;0.10;0.10;;;;;;;35.74;29.40;99261.31;5048995;28;20076;-60
2021/08/02 06:24:08;;;;;;;0.10;0.10;;;;;;;35.87;29.36;99247.25;5048725;28;20056;-60
2021/08/02 06:26:34;;;;;;;0.13;0.13;;;;;;;36.73;28.22;99250.38;5048942;28;20053;-60
2021/08/02 06:29:00;;;;;;;0.20;0.20;;;;;;;38.66;25.54;99240.84;5048898;28;20118;-60
2021/08/02 06:31:26;;;;;;;0.35;0.35;;;;;;;40.07;23.45;99239.66;5049411;28;20045;-60
2021/08/02 06:33:52;;;;;;;0.90;0.90;;;;;;;42.70;20.03;99243.47;5052318;28;20049;-61
2021/08/02 06:36:20;;;;;;;0.60;0.60;;;;;;;42.97;20.22;99243.34;5052352;28;20515;-59
2021/08/02 06:38:47;;;;;;;0.20;0.20;;;;;;;41.36;21.55;99246.63;5052324;28;20052;-59
2021/08/02 06:41:13;;;;;;;0.10;0.10;;;;;;;39.21;24.23;99241.56;5052124;28;20061;-59
2021/08/02 06:43:39;;;;;;;0.40;0.40;;;;;;;39.39;24.05;99244.44;5041406;28;20045;-59
2021/08/02 06:46:07;;;;;;;0.20;0.20;;;;;;;40.40;22.93;99248.84;5032037;28;20053;-59
2021/08/02 06:48:33;;;;;;;0.10;0.10;;;;;;;38.18;25.31;99266.16;5031137;28;20061;-59
2021/08/02 06:50:59;;;;;;;0.20;0.20;;;;;;;36.32;28.67;99262.19;5032002;28;20854;-59
2021/08/02 06:53:25;;;;;;;0.10;0.10;;;;;;;35.12;30.35;99265.66;5031098;28;20120;-59
2021/08/02 06:55:51;;;;;;;0.10;0.10;;;;;;;34.19;32.17;99259.47;5031841;28;20192;-59
2021/08/02 06:58:17;;;;;;;0.10;0.10;;;;;;;33.44;33.43;99257.22;5032150;28;20037;-58
2021/08/02 07:00:43;;;;;;;0.13;0.13;;;;;;;32.88;34.51;99258.16;5031990;28;20054;-59
2021/08/02 07:03:10;;;;;;;0.10;0.10;;;;;;;32.47;35.99;99269.22;5031830;28;20534;-58
2021/08/02 07:05:35;;;;;;;0.00;0.00;;;;;;;32.08;36.47;99270.00;5047327;28;20050;-58
2021/08/02 07:08:01;;;;;;;0.03;0.03;;;;;;;31.74;37.32;99268.97;5031705;28;20045;-59
2021/08/02 07:10:28;;;;;;;0.10;0.10;;;;;;;31.42;38.39;99280.03;5030735;28;20072;-58
2021/08/02 07:12:54;;;;;;;0.10;0.10;;;;;;;31.17;38.93;99286.69;5047147;28;20041;-59
2021/08/02 07:15:20;;;;;;;0.10;0.10;;;;;;;30.80;39.42;99259.81;5031848;28;20115;-58
2021/08/02 07:17:46;;;;;;;0.13;0.13;;;;;;;30.77;40.07;99284.53;5031813;28;20051;-56
2021/08/02 07:20:12;;;;;;;0.15;0.15;;;;;;;30.58;40.82;99274.84;5031364;28;20075;-58
2021/08/02 07:22:38;;;;;;;0.00;0.00;;;;;;;30.46;41.04;99273.97;5031814;28;20136;-58
2021/08/02 07:25:05;;;;;;;0.10;0.10;;;;;;;30.31;41.43;99274.31;5031340;28;20128;-58
2021/08/02 07:27:31;;;;;;;0.20;0.20;;;;;;;30.23;42.00;99279.19;5046911;28;20053;-59
2021/08/02 07:29:57;;;;;;;0.10;0.10;;;;;;;30.13;42.12;99285.09;5031198;28;20037;-59
2021/08/02 07:32:23;;;;;;;0.20;0.20;;;;;;;30.05;42.35;99280.00;5030148;28;20099;-59
2021/08/02 07:34:49;;;;;;;0.10;0.10;;;;;;;30.01;42.62;99280.69;5046649;28;20045;-59
2021/08/02 07:37:15;;;;;;;0.00;0.00;;;;;;;29.96;42.80;99278.66;5031189;28;20056;-58
2021/08/02 07:39:41;;;;;;;0.10;0.10;;;;;;;29.96;42.88;99275.94;5029923;28;20053;-58
2021/08/02 07:42:07;;;;;;;0.15;0.15;;;;;;;29.92;42.97;99262.09;5030001;28;20050;-59
2021/08/02 07:44:33;;;;;;;0.10;0.10;;;;;;;29.93;43.16;99271.84;5049128;28;20110;-59
2021/08/02 07:47:00;;;;;;;0.10;0.10;;;;;;;29.80;43.30;99255.78;5050965;28;20144;-59
2021/08/02 07:49:26;;;;;;;0.10;0.10;;;;;;;29.80;43.52;99260.34;5051146;28;20076;-59
2021/08/02 07:51:53;;;;;;;0.10;0.10;;;;;;;29.62;43.73;99234.22;5049842;28;20048;-59
2021/08/02 07:54:19;;;;;;;0.30;0.30;;;;;;;29.61;43.87;99255.97;5051103;28;20049;-59
2021/08/02 07:56:45;;;;;;;0.10;0.10;;;;;;;29.54;44.11;99242.59;5050879;28;20053;-60
2021/08/02 07:59:11;;;;;;;0.80;0.38;;;;;;;29.46;44.38;99243.69;5050506;28;20069;-59
2021/08/02 08:01:37;;;;;;;0.20;0.20;;;;;;;29.40;44.25;99238.34;5050922;28;20134;-59
2021/08/02 08:04:03;;;;;;;0.10;0.10;;;;;;;29.30;44.55;99240.72;5050494;28;20124;-59
2021/08/02 08:06:29;;;;;;;0.10;0.10;;;;;;;29.23;44.86;99247.97;5050719;28;20055;-59
2021/08/02 08:08:55;;;;;;;0.20;0.20;;;;;;;29.11;45.20;99250.56;5050343;28;20058;-59
2021/08/02 08:11:21;;;;;;;0.10;0.10;;;;;;;29.09;44.99;99258.00;5050553;28;20076;-60
2021/08/02 08:13:47;;;;;;;0.17;0.17;;;;;;;29.06;45.05;99236.13;5049560;28;20053;-55
2021/08/02 08:16:13;;;;;;;0.15;0.15;;;;;;;29.04;45.38;99219.38;5048994;28;20071;-54
2021/08/02 08:18:39;;;;;;;0.13;0.13;;;;;;;29.07;45.30;99206.31;5050475;28;20044;-55
2021/08/02 08:21:05;;;;;;;0.10;0.10;;;;;;;29.14;44.97;99179.38;5048739;28;20053;-55
2021/08/02 08:23:32;;;;;;;1.17;0.40;;;;;;;29.52;44.19;99174.69;5049208;28;20529;-54
2021/08/02 08:25:58;;;;;;;0.20;0.20;;;;;;;29.91;43.31;99160.84;5048766;28;20071;-55
2021/08/02 08:28:24;;;;;;;0.10;0.10;;;;;;;30.37;42.34;99135.16;5050447;28;20510;-55
2021/08/02 08:30:50;;;;;;;0.30;0.30;;;;;;;30.77;41.68;99141.63;5050154;28;20102;-55
2021/08/02 08:33:16;;;;;;;0.10;0.10;;;;;;;31.07;40.57;99151.56;5050073;28;20056;-53
2021/08/02 08:35:43;;;;;;;0.10;0.10;;;;;;;31.20;40.10;99143.22;5050185;28;20049;-56
2021/08/02 08:38:09;;;;;;;0.30;0.30;;;;;;;31.25;39.75;99144.16;5032272;28;20052;-58
2021/08/02 08:40:35;;;;;;;0.10;0.10;;;;;;;31.25;39.64;99141.47;5050015;28;20118;-58
2021/08/02 08:43:02;;;;;;;0.10;0.10;;;;;;;31.23;39.79;99142.75;5048522;28;20056;-57
2021/08/02 08:45:28;;;;;;;0.10;0.10;;;;;;;31.21;39.77;99134.91;5032369;28;20045;-57
2021/08/02 08:47:56;;;;;;;0.10;0.10;;;;;;;31.22;39.77;99141.09;5050000;28;20051;-55
2021/08/02 08:50:22;;;;;;;0.10;0.10;;;;;;;31.21;39.86;99134.09;5049859;28;20118;-56
2021/08/02 08:52:49;;;;;;;0.20;0.20;;;;;;;31.26;39.61;99115.31;5049898;28;20052;-54
2021/08/02 08:55:15;;;;;;;0.20;0.20;;;;;;;31.30;39.52;99116.47;5049133;28;20052;-56
2021/08/02 08:57:42;;;;;;;0.10;0.10;;;;;;;31.32;39.32;99130.56;5049911;28;20044;-54
2021/08/02 09:00:28;;;;;;;0.10;0.10;;;;;;;31.31;39.26;99120.84;5049540;28;20048;-55
2021/08/02 09:02:55;;;;;;;0.00;0.00;;;;;;;31.31;39.34;99128.94;5049836;28;20084;-57
2021/08/02 09:05:21;;;;;;;0.20;0.20;;;;;;;31.27;39.52;99123.19;5048320;28;20067;-55
2021/08/02 09:07:48;;;;;;;0.20;0.20;;;;;;;31.27;39.70;99111.56;5049708;28;20099;-55
2021/08/02 09:10:16;;;;;;;0.25;0.25;;;;;;;31.28;39.65;99102.41;5049287;28;20137;-54
2021/08/02 09:12:54;;;;;;;0.10;0.10;;;;;;;31.29;39.21;99104.03;5049767;28;20460;-58
2021/08/02 09:15:31;;;;;;;0.10;0.10;;;;;;;31.29;39.18;99109.44;5049356;28;20053;-57
2021/08/02 09:17:58;;;;;;;0.30;0.30;;;;;;;31.28;39.20;99099.72;5048550;28;20084;-56
2021/08/02 09:20:24;;;;;;;0.30;0.20;;;;;;;31.28;39.31;99097.03;5049184;28;20049;-57
2021/08/02 09:22:51;;;;;;;0.10;0.10;;;;;;;31.22;39.36;99095.25;5049777;28;20554;-56
2021/08/02 09:25:21;;;;;;;0.10;0.10;;;;;;;31.17;39.46;99078.97;5047958;28;20712;-56
2021/08/02 09:27:48;;;;;;;0.10;0.10;;;;;;;31.17;39.35;99084.34;5031703;28;20407;-56
2021/08/02 09:30:25;;;;;;;0.10;0.10;;;;;;;31.17;39.51;99084.34;5049063;28;20396;-56
2021/08/02 09:32:53;;;;;;;0.13;0.13;;;;;;;31.14;39.51;99069.47;5049488;28;20135;-57
2021/08/02 09:35:47;;;;;;;0.25;0.25;;;;;;;30.99;39.49;99045.66;5049080;28;20056;-53
2021/08/02 09:38:16;;;;;;;0.00;0.00;;;;;;;31.16;39.64;99066.53;5049128;28;20088;-54
2021/08/02 09:40:52;;;;;;;0.10;0.10;;;;;;;31.14;39.75;99055.16;5031601;28;20053;-52
2021/08/02 09:43:25;;;;;;;0.10;0.10;;;;;;;31.08;39.51;99048.84;5048989;28;20053;-53
2021/08/02 09:46:02;;;;;;;0.10;0.10;;;;;;;31.06;39.61;99058.19;5048023;28;20045;-53
2021/08/02 09:48:40;;;;;;;0.10;0.10;;;;;;;31.01;39.67;99048.13;5049234;28;20040;-56
2021/08/02 09:51:10;;;;;;;0.10;0.10;;;;;;;30.99;39.76;99034.03;5047776;28;20590;-59
2021/08/02 09:53:55;;;;;;;0.10;0.10;;;;;;;30.99;39.64;99042.97;5049457;28;20463;-57
2021/08/02 09:56:24;;;;;;;0.10;0.10;;;;;;;31.02;39.73;99038.16;5048901;28;20059;-55
2021/08/02 09:58:50;;;;;;;;;;;;;;;31.05;39.80;99043.09;5049496;28;20498;-56
2021/08/02 10:01:20;;;;;;;0.30;0.30;;;;;;;31.05;39.80;99037.69;5048804;28;19927;-56
2021/08/02 10:03:46;;;;;;;0.03;0.03;;;;;;;30.93;39.92;99025.00;5049026;28;20075;-55
2021/08/02 10:06:14;;;;;;;0.00;0.00;;;;;;;30.92;39.75;99023.34;5049040;28;20106;-55
2021/08/02 10:08:40;;;;;;;0.43;0.43;;;;;;;30.93;40.00;99027.69;5053185;28;20140;-55
2021/08/02 10:11:06;;;;;;;0.08;0.08;;;;;;;30.89;40.17;99042.69;5035032;28;20099;-55
2021/08/02 10:13:40;;;;;;;0.25;0.25;;;;;;;30.85;40.27;99025.38;5052986;28;20045;-56
2021/08/02 10:16:08;;;;;;;0.10;0.10;;;;;;;30.81;40.39;99021.50;5035032;28;20052;-58
2021/08/02 10:18:35;;;;;;;0.15;0.15;;;;;;;30.79;40.30;99023.59;5035142;28;20132;-58
2021/08/02 10:21:10;;;;;;;0.10;0.10;;;;;;;30.75;40.35;99027.81;5052731;28;20064;-57
2021/08/02 10:23:40;;;;;;;23.30;1.10;;;;;;;30.71;40.66;99023.94;5052825;28;20057;-57
2021/08/02 10:26:28;;;;;;;0.20;0.20;;;;;;;30.64;40.86;99028.63;5051144;28;20110;-57
2021/08/02 10:28:56;;;;;;;0.10;0.10;;;;;;;30.56;41.01;99038.94;5052578;28;20421;-56
2021/08/02 10:31:24;;;;;;;0.10;0.10;;;;;;;30.45;41.31;99038.69;5052281;28;20453;-57
2021/08/02 10:33:50;;;;;;;0.10;0.10;;;;;;;30.40;41.28;99029.66;5052658;28;20333;-54
2021/08/02 10:36:18;;;;;;;0.10;0.10;;;;;;;30.37;41.42;99022.00;5052083;28;20045;-55
2021/08/02 10:38:48;;;;;;;0.10;0.10;;;;;;;30.48;41.47;99037.41;5050892;28;20093;-57
2021/08/02 10:41:24;;;;;;;0.10;0.10;;;;;;;30.65;41.20;99035.69;5052192;28;20056;-59
2021/08/02 10:43:50;;;;;;;0.20;0.20;;;;;;;30.86;40.58;99034.25;5052124;28;20044;-59
2021/08/02 10:46:21;;;;;;;0.10;0.10;;;;;;;30.96;40.49;99029.13;5034338;28;20048;-57
2021/08/02 10:48:47;;;;;;;0.10;0.10;;;;;;;31.02;40.28;99038.16;5052269;28;20106;-58
2021/08/02 10:51:16;;;;;;;0.10;0.10;;;;;;;31.09;40.32;99033.44;5051819;28;20079;-59
2021/08/02 10:53:42;;;;;;;0.10;0.10;;;;;;;31.09;40.20;99050.47;5050999;28;20057;-58
2021/08/02 10:56:08;;;;;;;0.10;0.10;;;;;;;31.03;40.16;99048.72;5051864;28;20052;-57
2021/08/02 10:58:39;;;;;;;0.05;0.05;;;;;;;30.98;40.35;99040.50;5052119;28;20376;-55
2021/08/02 11:01:11;;;;;;;0.15;0.15;;;;;;;30.97;40.29;99036.16;5034126;28;20503;-58
2021/08/02 11:03:38;;;;;;;0.15;0.15;;;;;;;30.93;40.78;99040.34;5018091;28;20045;-57
2021/08/02 11:06:09;;;;;;;0.00;0.00;;;;;;;30.91;40.70;99037.91;5051931;28;20136;-55
2021/08/02 11:08:42;;;;;;;0.10;0.10;;;;;;;30.86;40.62;99036.94;5051989;28;20045;-57
2021/08/02 11:11:09;;;;;;;0.08;0.08;;;;;;;30.78;41.15;99035.44;5066967;28;20103;-60
2021/08/02 11:13:35;;;;;;;0.25;0.25;;;;;;;30.69;41.20;99023.38;5051931;28;20131;-54
2021/08/02 11:16:04;;;;;;;0.13;0.13;;;;;;;30.62;41.80;99033.44;5051679;28;20526;-58
2021/08/02 11:18:30;;;;;;;0.05;0.05;;;;;;;30.57;41.52;99019.84;5033695;28;20057;-59
2021/08/02 11:20:56;;;;;;;0.10;0.10;;;;;;;30.55;41.60;99027.34;5050596;28;20045;-58
2021/08/02 11:23:36;;;;;;;0.10;0.10;;;;;;;30.55;41.71;99021.13;5051289;28;20103;-57
2021/08/02 11:26:09;;;;;;;0.00;0.00;;;;;;;30.55;41.87;99015.75;5051438;28;20510;-58
2021/08/02 11:28:43;;;;;;;0.20;0.20;;;;;;;30.55;41.73;99013.88;5051655;28;20048;-55
2021/08/02 11:31:10;;;;;;;0.00;0.00;;;;;;;30.52;41.60;99010.81;5051066;28;20052;-58
2021/08/02 11:33:38;;;;;;;0.00;0.00;;;;;;;30.53;41.64;98994.41;5033459;28;20041;-57
2021/08/02 11:36:05;;;;;;;0.10;0.10;;;;;;;30.55;41.62;99005.78;5051087;28;20041;-55
2021/08/02 11:38:37;;;;;;;0.10;0.10;;;;;;;30.62;41.58;99001.09;5050826;28;20089;-57
2021/08/02 11:41:04;;;;;;;0.10;0.10;;;;;;;30.65;41.34;98995.25;5051793;28;20051;-55
2021/08/02 11:43:46;;;;;;;0.17;0.17;;;;;;;30.69;41.45;98985.66;5051363;28;20053;-56
2021/08/02 11:46:12;;;;;;;0.10;0.10;;;;;;;30.67;41.14;98985.03;5049698;28;20048;-58
2021/08/02 11:48:42;;;;;;;0.00;0.00;;;;;;;30.71;41.05;98988.91;5049947;28;20106;-54
2021/08/02 11:51:10;;;;;;;0.10;0.10;;;;;;;30.70;41.26;98995.34;5033037;28;20048;-53
2021/08/02 11:53:36;;;;;;;0.40;0.40;;;;;;;30.69;41.25;98985.66;5049873;28;20053;-54
2021/08/02 11:56:04;;;;;;;0.20;0.20;;;;;;;30.65;41.40;98983.63;5050807;28;20128;-57
2021/08/02 11:58:38;;;;;;;0.10;0.10;;;;;;;30.69;41.20;98979.44;5049231;28;20048;-56
2021/08/02 12:01:05;;;;;;;0.10;0.10;;;;;;;30.65;41.29;98967.47;5050869;28;20403;-60
2021/08/02 12:03:31;;;;;;;0.20;0.20;;;;;;;30.69;41.19;98974.84;5049246;28;20084;-55
2021/08/02 12:06:05;;;;;;;0.10;0.10;;;;;;;30.64;41.26;98958.56;5050646;28;20534;-56
2021/08/02 12:08:32;;;;;;;0.10;0.10;;;;;;;30.57;41.49;98955.16;5050533;28;20427;-55
2021/08/02 12:11:00;;;;;;;0.17;0.17;;;;;;;30.41;41.64;98945.91;5050674;28;20053;-55